Time;durP1;ratioP1;P1;durP2;ratioP2;P2;SDS_P1;SDS_P2;PMS_P1;PMS_P2;Temp;Humidity;BMP_temperature;BMP_pressure;BME280_temperature;BME280_humidity;BME280_pressure;Samples;Min_cycle;Max_cycle;Signal;HPM_P1;HPM_P2
2022/06/03 00:00:43;;;;;;;1999.90;999.90;;;9.60;99.90;;;;;;4988478;28;21021;-70
2022/06/03 00:03:24;;;;;;;1999.90;999.90;;;9.70;99.90;;;;;;5016654;28;20484;-72
2022/06/03 00:06:13;;;;;;;1999.90;999.90;;;9.60;99.90;;;;;;5014417;28;20530;-71
2022/06/03 00:09:02;;;;;;;1999.90;999.90;;;9.60;99.90;;;;;;5009043;28;20464;-68
2022/06/03 00:11:49;;;;;;;1999.90;999.90;;;9.50;99.90;;;;;;5010627;28;20480;-68
2022/06/03 00:14:38;;;;;;;1999.90;999.90;;;9.50;99.90;;;;;;5011291;28;20463;-69
2022/06/03 00:17:12;;;;;;;1999.90;999.90;;;9.40;99.90;;;;;;5009845;28;20882;-68
2022/06/03 00:19:55;;;;;;;1999.90;999.90;;;9.30;99.90;;;;;;5008847;28;20514;-69
2022/06/03 00:22:39;;;;;;;1999.90;999.90;;;9.30;99.90;;;;;;5008879;28;20557;-69
2022/06/03 00:25:23;;;;;;;1999.90;999.90;;;9.30;99.90;;;;;;5010298;28;20476;-69
2022/06/03 00:28:26;;;;;;;1999.90;999.90;;;9.30;99.90;;;;;;5011216;28;20460;-68
2022/06/03 00:31:09;;;;;;;1999.90;999.90;;;9.10;99.90;;;;;;5013660;28;20463;-71
2022/06/03 00:33:50;;;;;;;1999.90;999.90;;;9.20;99.90;;;;;;5014466;28;20578;-70
2022/06/03 00:36:40;;;;;;;1999.90;999.90;;;9.20;99.90;;;;;;5013186;28;20468;-70
2022/06/03 00:39:39;;;;;;;1999.90;999.90;;;9.20;99.90;;;;;;5006994;28;20543;-69
2022/06/03 00:42:28;;;;;;;1999.90;999.90;;;9.30;99.90;;;;;;5012251;28;20503;-69
2022/06/03 00:45:08;;;;;;;1999.90;999.90;;;9.20;99.90;;;;;;5014853;28;20483;-69
2022/06/03 00:47:48;;;;;;;1999.90;999.90;;;9.10;99.90;;;;;;5011250;28;20474;-68
2022/06/03 00:50:30;;;;;;;1999.90;999.90;;;9.10;99.90;;;;;;5005235;28;20460;-69
2022/06/03 00:53:31;;;;;;;1999.90;999.90;;;9.10;99.90;;;;;;5007491;28;20506;-68
2022/06/03 00:56:17;;;;;;;1999.90;999.90;;;9.10;99.90;;;;;;5007324;28;20498;-66
2022/06/03 00:59:01;;;;;;;1999.90;999.90;;;9.20;99.90;;;;;;5007109;28;20661;-68
2022/06/03 01:01:32;;;;;;;1999.90;999.90;;;9.00;99.90;;;;;;5007046;28;20917;-65
2022/06/03 01:04:24;;;;;;;1999.90;999.90;;;9.00;99.90;;;;;;5007838;28;20464;-67
2022/06/03 01:07:02;;;;;;;1999.90;999.90;;;9.00;99.90;;;;;;5006805;28;20519;-68
2022/06/03 01:09:44;;;;;;;1999.90;999.90;;;8.90;99.90;;;;;;5008834;28;20555;-67
2022/06/03 01:12:25;;;;;;;1999.90;999.90;;;8.90;99.90;;;;;;5009448;28;20917;-69
2022/06/03 01:15:15;;;;;;;1999.90;999.90;;;8.90;99.90;;;;;;5009724;28;20491;-70
2022/06/03 01:17:58;;;;;;;1999.90;999.90;;;9.00;99.90;;;;;;5008075;28;20967;-68
2022/06/03 01:20:37;;;;;;;1999.90;999.90;;;9.20;99.90;;;;;;5009145;28;20514;-67
2022/06/03 01:23:37;;;;;;;1999.90;999.90;;;9.20;99.90;;;;;;5007860;28;20491;-69
2022/06/03 01:26:32;;;;;;;1999.90;999.90;;;9.30;99.90;;;;;;5008037;28;20995;-69
2022/06/03 01:29:29;;;;;;;1999.90;999.90;;;9.30;99.90;;;;;;5006840;28;20507;-69
2022/06/03 01:32:31;;;;;;;1999.90;999.90;;;9.30;99.90;;;;;;5008266;28;20491;-71
2022/06/03 01:35:15;;;;;;;1999.90;999.90;;;9.50;99.90;;;;;;5008594;28;20609;-70
2022/06/03 01:37:49;;;;;;;1999.90;999.90;;;9.60;99.90;;;;;;5007578;28;20459;-70
2022/06/03 01:40:36;;;;;;;1999.90;999.90;;;9.60;99.90;;;;;;5008178;28;20505;-69
2022/06/03 01:43:32;;;;;;;1999.90;999.90;;;9.50;99.90;;;;;;5009578;28;20534;-71
2022/06/03 01:46:26;;;;;;;1999.90;999.90;;;9.50;99.90;;;;;;5008727;28;20468;-67
2022/06/03 01:49:35;;;;;;;1999.90;999.90;;;9.30;99.90;;;;;;5008379;28;20468;-67
2022/06/03 01:52:28;;;;;;;1999.90;999.90;;;9.20;99.90;;;;;;5008383;28;20484;-68
2022/06/03 01:55:28;;;;;;;1999.90;999.90;;;9.00;99.90;;;;;;5008139;28;20521;-69
2022/06/03 01:58:20;;;;;;;1999.90;999.90;;;8.90;99.90;;;;;;5009687;28;20472;-65
2022/06/03 02:00:55;;;;;;;1999.90;999.90;;;8.80;99.90;;;;;;5008299;28;20605;-69
2022/06/03 02:03:50;;;;;;;1999.90;999.90;;;8.70;99.90;;;;;;5008865;28;20490;-69
2022/06/03 02:06:59;;;;;;;1999.90;999.90;;;8.70;99.90;;;;;;5008711;28;20480;-69
2022/06/03 02:10:03;;;;;;;1999.90;999.90;;;8.60;99.90;;;;;;5006843;28;20460;-69
2022/06/03 02:12:56;;;;;;;1999.90;999.90;;;8.70;99.90;;;;;;5011474;28;20566;-69
2022/06/03 02:15:55;;;;;;;1999.90;999.90;;;8.60;99.90;;;;;;5011525;28;21057;-70
2022/06/03 02:18:40;;;;;;;1999.90;999.90;;;8.60;99.90;;;;;;5007181;28;20464;-69
2022/06/03 02:21:34;;;;;;;1999.90;999.90;;;8.70;99.90;;;;;;5008199;28;20506;-69
2022/06/03 02:24:25;;;;;;;1999.90;999.90;;;8.60;99.90;;;;;;5013661;28;20468;-71
2022/06/03 02:27:38;;;;;;;1999.90;999.90;;;8.60;99.90;;;;;;5017314;28;20561;-67
2022/06/03 02:30:33;;;;;;;1999.90;999.90;;;8.60;99.90;;;;;;5018658;28;20460;-73
2022/06/03 02:33:42;;;;;;;1999.90;999.90;;;8.60;99.90;;;;;;5011892;28;20488;-69
2022/06/03 02:36:43;;;;;;;1999.90;999.90;;;8.60;99.90;;;;;;5012198;28;21228;-70
2022/06/03 02:39:34;;;;;;;1999.90;999.90;;;8.60;99.90;;;;;;5011709;28;20462;-70
2022/06/03 02:42:27;;;;;;;1999.90;999.90;;;8.70;99.90;;;;;;5013586;28;20480;-70
2022/06/03 02:45:27;;;;;;;1999.90;999.90;;;8.60;99.90;;;;;;5012094;28;20491;-69
2022/06/03 02:48:28;;;;;;;1999.90;999.90;;;8.70;99.90;;;;;;5008690;28;20471;-64
2022/06/03 02:51:30;;;;;;;1999.90;999.90;;;8.70;99.90;;;;;;5007976;28;20459;-70
2022/06/03 02:54:15;;;;;;;1999.90;999.90;;;8.80;99.90;;;;;;5011581;28;20459;-69
2022/06/03 02:56:55;;;;;;;1999.90;999.90;;;8.90;99.90;;;;;;5011435;28;20474;-69
2022/06/03 02:59:46;;;;;;;1999.90;999.90;;;8.90;99.90;;;;;;5012037;28;20459;-70
2022/06/03 03:02:41;;;;;;;1999.90;999.90;;;8.90;99.90;;;;;;5009277;28;20905;-70
2022/06/03 03:05:36;;;;;;;1999.90;999.90;;;8.90;99.90;;;;;;5010785;28;21059;-69
2022/06/03 03:08:44;;;;;;;1999.90;999.90;;;8.80;99.90;;;;;;5013082;28;20471;-68
2022/06/03 03:11:23;;;;;;;1999.90;999.90;;;8.60;99.90;;;;;;5011804;28;20507;-68
2022/06/03 03:14:23;;;;;;;1999.90;999.90;;;8.50;99.90;;;;;;5011010;28;20479;-71
2022/06/03 03:17:30;;;;;;;1999.90;999.90;;;8.50;99.90;;;;;;5009757;28;20486;-69
2022/06/03 03:20:34;;;;;;;1999.90;999.90;;;8.50;99.90;;;;;;5008857;28;20518;-69
2022/06/03 03:23:25;;;;;;;1999.90;999.90;;;8.50;99.90;;;;;;5011243;28;20498;-70
2022/06/03 03:26:03;;;;;;;1999.90;999.90;;;8.50;99.90;;;;;;4989817;28;20514;-67
2022/06/03 03:28:55;;;;;;;1999.90;999.90;;;8.50;99.90;;;;;;5009952;28;20460;-73
2022/06/03 03:31:41;;;;;;;1999.90;999.90;;;8.60;99.90;;;;;;5011879;28;20472;-69
2022/06/03 03:34:23;;;;;;;1999.90;999.90;;;8.60;99.90;;;;;;5010731;28;20471;-69
2022/06/03 03:37:23;;;;;;;1999.90;999.90;;;8.50;99.90;;;;;;5009578;28;20455;-68
2022/06/03 03:40:35;;;;;;;1999.90;999.90;;;8.60;99.90;;;;;;5010753;28;20486;-69
2022/06/03 03:43:32;;;;;;;1999.90;999.90;;;8.70;99.90;;;;;;5013220;28;21215;-67
2022/06/03 03:46:35;;;;;;;1999.90;999.90;;;8.70;99.90;;;;;;5015396;28;20944;-69
2022/06/03 03:49:28;;;;;;;1999.90;999.90;;;8.80;99.90;;;;;;5013640;28;20486;-67
2022/06/03 03:52:34;;;;;;;1999.90;999.90;;;8.80;99.90;;;;;;5010154;28;20495;-68
2022/06/03 03:55:27;;;;;;;1999.90;999.90;;;8.90;99.90;;;;;;4990059;28;20899;-67
2022/06/03 03:58:27;;;;;;;1999.90;999.90;;;8.90;99.90;;;;;;5010034;28;20476;-68
2022/06/03 04:01:39;;;;;;;1999.90;999.90;;;8.90;99.90;;;;;;5000987;28;20534;-67
2022/06/03 04:04:27;;;;;;;1999.90;999.90;;;8.90;99.90;;;;;;4987344;28;20457;-68
2022/06/03 04:07:21;;;;;;;1999.90;999.90;;;9.00;99.90;;;;;;5009726;28;20484;-67
2022/06/03 04:10:12;;;;;;;1999.90;999.90;;;9.00;99.90;;;;;;5009836;28;20470;-68
2022/06/03 04:13:15;;;;;;;1999.90;999.90;;;9.10;99.90;;;;;;5009491;28;21018;-68
2022/06/03 04:16:10;;;;;;;1999.90;999.90;;;9.10;99.90;;;;;;5010698;28;20514;-68
2022/06/03 04:19:19;;;;;;;1999.90;999.90;;;9.30;99.90;;;;;;5009136;28;21038;-66
2022/06/03 04:22:16;;;;;;;1999.90;999.90;;;9.40;99.90;;;;;;4985838;28;20546;-67
2022/06/03 04:25:35;;;;;;;1999.90;999.90;;;9.50;99.90;;;;;;5008042;28;20468;-69
2022/06/03 04:28:22;;;;;;;1999.90;999.90;;;9.70;99.90;;;;;;5010068;28;20464;-70
2022/06/03 04:31:34;;;;;;;1999.90;999.90;;;10.10;99.90;;;;;;5009624;28;20476;-70
2022/06/03 04:34:47;;;;;;;1999.90;999.90;;;10.80;99.90;;;;;;5008423;28;20490;-71
2022/06/03 04:37:58;;;;;;;1999.90;999.90;;;11.60;99.90;;;;;;4990351;28;20460;-70
2022/06/03 04:41:01;;;;;;;1999.90;999.90;;;12.20;99.90;;;;;;5008624;28;20463;-71
2022/06/03 04:44:20;;;;;;;1999.90;999.90;;;12.60;99.90;;;;;;5008090;28;20860;-68
2022/06/03 04:47:33;;;;;;;1999.90;999.90;;;13.00;99.90;;;;;;5010464;28;20549;-71
2022/06/03 04:50:38;;;;;;;1999.90;999.90;;;13.30;99.90;;;;;;5025780;28;20458;-71
2022/06/03 04:53:56;;;;;;;1999.90;999.90;;;13.60;99.90;;;;;;5017498;28;20482;-72
2022/06/03 04:56:57;;;;;;;1999.90;999.90;;;13.80;99.90;;;;;;5030228;28;20464;-69
2022/06/03 04:59:52;;;;;;;1999.90;999.90;;;13.90;99.90;;;;;;5029068;28;20478;-69
2022/06/03 05:02:52;;;;;;;1999.90;999.90;;;14.30;99.90;;;;;;5027485;28;20491;-69
2022/06/03 05:05:50;;;;;;;1999.90;999.90;;;14.60;99.90;;;;;;5017380;28;20483;-69
2022/06/03 05:09:02;;;;;;;1999.90;999.90;;;14.90;99.90;;;;;;5028243;28;20451;-68
2022/06/03 05:12:08;;;;;;;1999.90;999.90;;;15.10;99.90;;;;;;5025830;28;20475;-67
2022/06/03 05:15:23;;;;;;;1999.90;999.90;;;15.10;99.90;;;;;;5025544;28;20447;-69
2022/06/03 05:18:23;;;;;;;1999.90;999.90;;;15.30;99.90;;;;;;5025964;28;20463;-69
2022/06/03 05:21:33;;;;;;;1999.90;999.90;;;15.40;99.90;;;;;;5026824;28;20463;-67
2022/06/03 05:24:24;;;;;;;1999.90;999.90;;;15.60;99.90;;;;;;5015529;28;20514;-69
2022/06/03 05:27:31;;;;;;;1999.90;999.90;;;15.70;99.90;;;;;;5022039;28;20930;-68
2022/06/03 05:30:13;;;;;;;1999.90;999.90;;;15.70;99.90;;;;;;5023228;28;20529;-69
2022/06/03 05:33:30;;;;;;;1999.90;999.90;;;15.80;99.90;;;;;;5024913;28;20512;-68
2022/06/03 05:36:32;;;;;;;1999.90;999.90;;;16.20;99.90;;;;;;5070166;23;21065;-63
2022/06/03 05:39:33;;;;;;;1999.90;999.90;;;16.00;99.90;;;;;;5060694;28;20499;-67
2022/06/03 05:42:29;;;;;;;1999.90;999.90;;;16.00;99.90;;;;;;5063093;28;20470;-64
2022/06/03 05:45:21;;;;;;;1999.90;999.90;;;16.10;99.90;;;;;;5062030;28;20553;-65
2022/06/03 05:47:53;;;;;;;1999.90;999.90;;;15.90;99.90;;;;;;5042124;28;20516;-65
2022/06/03 05:50:31;;;;;;;1999.90;999.90;;;16.10;99.90;;;;;;5046966;28;20450;-65
2022/06/03 05:53:11;;;;;;;1999.90;999.90;;;16.10;99.90;;;;;;5047138;28;20859;-64
2022/06/03 05:55:51;;;;;;;1999.90;999.90;;;16.20;99.90;;;;;;5043392;28;21009;-65
2022/06/03 05:58:34;;;;;;;1999.90;999.90;;;16.40;99.90;;;;;;5049945;28;20450;-65
2022/06/03 06:01:37;;;;;;;1999.90;999.90;;;16.80;99.90;;;;;;5045878;28;21166;-64
2022/06/03 06:04:14;;;;;;;1999.90;999.90;;;16.70;99.90;;;;;;5045021;28;20949;-65
2022/06/03 06:06:54;;;;;;;1999.90;999.90;;;16.70;99.90;;;;;;5048901;28;20485;-65
2022/06/03 06:09:42;;;;;;;1999.90;999.90;;;16.80;99.90;;;;;;5050249;28;20531;-65
2022/06/03 06:12:25;;;;;;;1999.90;999.90;;;16.90;99.90;;;;;;5049150;28;20462;-65
2022/06/03 06:15:11;;;;;;;1999.90;999.90;;;17.00;99.90;;;;;;5050064;28;20508;-64
2022/06/03 06:17:45;;;;;;;1999.90;999.90;;;17.20;99.90;;;;;;5047481;28;20454;-65
2022/06/03 06:20:22;;;;;;;1999.90;999.90;;;17.20;99.90;;;;;;5050211;28;20817;-65
2022/06/03 06:22:49;;;;;;;1999.90;999.90;;;17.60;99.90;;;;;;5045214;28;20470;-65
2022/06/03 06:25:25;;;;;;;1999.90;999.90;;;17.80;99.90;;;;;;5048867;28;20474;-65
2022/06/03 06:27:59;;;;;;;1999.90;999.90;;;18.00;99.90;;;;;;5047738;28;21045;-63
2022/06/03 06:30:59;;;;;;;1999.90;999.90;;;17.90;99.90;;;;;;5047587;28;20908;-65
2022/06/03 06:33:41;;;;;;;1999.90;999.90;;;18.20;99.90;;;;;;5044565;28;20877;-64
2022/06/03 06:36:52;;;;;;;1999.90;999.90;;;18.40;99.90;;;;;;5048187;28;20484;-65
2022/06/03 06:39:38;;;;;;;1999.90;999.90;;;18.50;99.90;;;;;;5045474;28;20457;-62
2022/06/03 06:42:17;;;;;;;1999.90;999.90;;;18.30;99.90;;;;;;5048193;28;20515;-65
2022/06/03 06:44:55;;;;;;;1999.90;999.90;;;18.70;99.90;;;;;;5050607;28;20445;-64
2022/06/03 06:47:29;;;;;;;1999.90;999.90;;;18.60;99.30;;;;;;5051141;28;20542;-65
2022/06/03 06:50:11;;;;;;;1999.90;999.90;;;18.40;99.70;;;;;;5050077;28;20457;-64
2022/06/03 06:52:47;;;;;;;1999.90;999.90;;;18.20;99.60;;;;;;5051399;28;20949;-65
2022/06/03 06:55:22;;;;;;;1999.90;999.90;;;18.30;99.20;;;;;;5051082;28;20524;-63
2022/06/03 06:57:51;;;;;;;1999.90;999.90;;;18.50;99.80;;;;;;5050212;28;20457;-64
2022/06/03 07:00:24;;;;;;;1999.90;999.90;;;18.50;99.60;;;;;;5048267;28;20519;-65
2022/06/03 07:02:54;;;;;;;1999.90;999.90;;;18.70;99.00;;;;;;5050610;28;20949;-65
2022/06/03 07:05:26;;;;;;;1999.90;999.90;;;18.80;98.50;;;;;;5050304;28;21049;-65
2022/06/03 07:07:58;;;;;;;1999.90;999.90;;;19.00;98.30;;;;;;5053886;28;20446;-65
2022/06/03 07:10:29;;;;;;;1999.90;999.90;;;19.10;98.60;;;;;;5054237;28;20434;-65
2022/06/03 07:13:03;;;;;;;1999.90;999.90;;;19.00;98.50;;;;;;5054599;28;20432;-66
2022/06/03 07:15:43;;;;;;;1999.90;999.90;;;18.80;98.80;;;;;;5054168;28;20449;-65
2022/06/03 07:21:15;;;;;;;1999.90;999.90;;;18.80;98.90;;;;;;5054237;28;20472;-66
2022/06/03 07:23:48;;;;;;;1999.90;999.90;;;18.70;98.10;;;;;;5054160;28;20495;-65
2022/06/03 07:26:22;;;;;;;1999.90;999.90;;;18.50;98.60;;;;;;5053776;28;21035;-65
2022/06/03 07:28:55;;;;;;;1999.90;999.90;;;18.60;98.40;;;;;;5053292;28;20441;-66
2022/06/03 07:31:28;;;;;;;1999.90;999.90;;;18.80;98.40;;;;;;5054326;28;20426;-65
2022/06/03 07:34:00;;;;;;;1999.90;999.90;;;18.90;98.40;;;;;;5053802;28;20442;-65
2022/06/03 07:36:39;;;;;;;1999.90;999.90;;;19.30;98.50;;;;;;5053590;28;20458;-65
2022/06/03 07:39:35;;;;;;;1999.90;999.90;;;19.10;97.70;;;;;;5053825;28;20426;-62
2022/06/03 07:42:07;;;;;;;1999.90;999.90;;;19.20;97.80;;;;;;5053477;28;20848;-66
2022/06/03 07:44:41;;;;;;;1999.90;999.90;;;19.20;97.10;;;;;;5053600;28;20848;-65
2022/06/03 07:47:10;;;;;;;1999.90;999.90;;;19.20;96.90;;;;;;5053786;28;20462;-65
2022/06/03 07:49:39;;;;;;;1999.90;999.90;;;19.40;95.60;;;;;;5053262;28;20934;-65
2022/06/03 07:52:13;;;;;;;1999.90;999.90;;;19.50;94.50;;;;;;5053682;28;20492;-65
2022/06/03 07:54:55;;;;;;;1999.90;999.90;;;19.30;94.50;;;;;;5053471;28;20889;-65
2022/06/03 07:57:24;;;;;;;1999.90;999.90;;;19.20;94.80;;;;;;5053331;28;20972;-65
2022/06/03 07:59:55;;;;;;;1999.90;999.90;;;19.40;94.90;;;;;;5053249;28;20446;-65
2022/06/03 08:02:24;;;;;;;1999.90;999.90;;;19.50;94.20;;;;;;5053629;28;20426;-65
2022/06/03 08:05:03;;;;;;;1999.90;999.90;;;19.50;94.50;;;;;;5047239;28;20467;-66
2022/06/03 08:13:05;;;;;;;1999.90;999.90;;;19.90;94.70;;;;;;5053275;28;20402;-65
2022/06/03 08:15:36;;;;;;;1999.90;999.90;;;20.10;93.90;;;;;;5053254;28;20524;-65
2022/06/03 08:18:06;;;;;;;1999.90;999.90;;;20.20;93.80;;;;;;5052962;28;20422;-63
2022/06/03 08:20:37;;;;;;;1999.90;999.90;;;20.20;93.30;;;;;;5052233;28;20455;-66
2022/06/03 08:23:05;;;;;;;1999.90;999.90;;;20.30;92.80;;;;;;5053130;28;20438;-65
2022/06/03 08:25:38;;;;;;;1999.90;999.90;;;20.20;93.40;;;;;;5052868;28;20961;-66
2022/06/03 08:28:06;;;;;;;1999.90;999.90;;;19.90;93.20;;;;;;5052616;28;20552;-64
2022/06/03 08:30:33;;;;;;;1999.90;999.90;;;19.90;93.30;;;;;;5053008;28;20781;-66
2022/06/03 08:33:05;;;;;;;1999.90;999.90;;;20.20;93.60;;;;;;5052908;28;20459;-65
2022/06/03 08:35:35;;;;;;;1999.90;999.90;;;20.00;93.10;;;;;;5052914;28;20539;-65
2022/06/03 08:38:05;;;;;;;1999.90;999.90;;;20.30;93.00;;;;;;5052862;28;20438;-63
2022/06/03 08:40:39;;;;;;;1999.90;999.90;;;20.40;92.90;;;;;;5052782;28;20910;-66
2022/06/03 08:43:16;;;;;;;1999.90;999.90;;;20.70;92.60;;;;;;5053101;28;20492;-65
2022/06/03 08:45:50;;;;;;;1999.90;999.90;;;20.60;91.90;;;;;;5052852;28;20465;-65
2022/06/03 08:48:21;;;;;;;1999.90;999.90;;;20.50;92.20;;;;;;5052436;28;20462;-65
2022/06/03 08:50:56;;;;;;;1999.90;999.90;;;20.80;92.30;;;;;;5052149;28;20972;-65
2022/06/03 08:53:29;;;;;;;1999.90;999.90;;;20.80;92.20;;;;;;5052399;28;20480;-67
2022/06/03 08:56:00;;;;;;;1999.90;999.90;;;21.50;92.70;;;;;;5052492;28;20462;-66
2022/06/03 08:58:34;;;;;;;1999.90;999.90;;;21.00;92.30;;;;;;5052403;28;20445;-68
2022/06/03 09:01:17;;;;;;;1999.90;999.90;;;21.20;92.00;;;;;;5052509;28;20429;-66
2022/06/03 09:03:53;;;;;;;1999.90;999.90;;;20.70;92.20;;;;;;5052003;28;20495;-65
2022/06/03 09:06:47;;;;;;;1999.90;999.90;;;20.70;92.40;;;;;;5052043;28;20462;-65
2022/06/03 09:09:22;;;;;;;1999.90;999.90;;;20.70;91.70;;;;;;5049083;28;20525;-65
2022/06/03 09:11:57;;;;;;;1999.90;999.90;;;20.70;92.20;;;;;;5052670;28;20513;-66
2022/06/03 09:14:27;;;;;;;1999.90;999.90;;;20.90;91.30;;;;;;5052398;28;20444;-65
2022/06/03 09:16:57;;;;;;;1999.90;999.90;;;21.10;91.20;;;;;;5051775;28;20489;-66
2022/06/03 09:19:31;;;;;;;1999.90;999.90;;;21.10;90.90;;;;;;5051843;28;20446;-66
2022/06/03 09:22:06;;;;;;;1999.90;999.90;;;21.10;90.50;;;;;;5052000;28;20492;-65
2022/06/03 09:24:37;;;;;;;1999.90;999.90;;;21.10;91.30;;;;;;5051701;28;20450;-65
2022/06/03 09:27:05;;;;;;;1999.90;999.90;;;21.10;91.80;;;;;;5052277;28;20477;-68
2022/06/03 09:29:32;;;;;;;1999.90;999.90;;;21.10;91.70;;;;;;5051458;28;20488;-67
2022/06/03 09:32:02;;;;;;;1999.90;999.90;;;21.40;91.30;;;;;;5051757;28;20492;-67
2022/06/03 09:34:41;;;;;;;1999.90;999.90;;;21.20;91.20;;;;;;5051682;28;20442;-65
2022/06/03 09:37:11;;;;;;;1999.90;999.90;;;21.10;90.80;;;;;;5051633;28;20922;-67
2022/06/03 09:39:37;;;;;;;1999.90;999.90;;;21.30;91.30;;;;;;5051445;28;20438;-67
2022/06/03 09:42:06;;;;;;;1999.90;999.90;;;21.60;91.90;;;;;;5051891;28;20434;-68
2022/06/03 09:44:33;;;;;;;1999.90;999.90;;;21.70;91.80;;;;;;5052018;28;20468;-67
2022/06/03 09:47:03;;;;;;;1999.90;999.90;;;21.30;91.20;;;;;;5051245;28;20523;-67
2022/06/03 09:49:32;;;;;;;1999.90;999.90;;;21.30;92.20;;;;;;5051616;28;20496;-67
2022/06/03 09:52:02;;;;;;;1999.90;999.90;;;21.50;91.80;;;;;;5051551;28;21138;-68
2022/06/03 09:54:32;;;;;;;1999.90;999.90;;;21.90;90.90;;;;;;5052038;28;20449;-68
2022/06/03 09:57:07;;;;;;;1999.90;999.90;;;22.10;90.10;;;;;;5051605;28;20524;-68
2022/06/03 09:59:36;;;;;;;1999.90;999.90;;;22.10;90.30;;;;;;5051186;28;20628;-67
2022/06/03 10:02:04;;;;;;;1999.90;999.90;;;22.30;90.80;;;;;;5051501;28;20914;-67
2022/06/03 10:04:31;;;;;;;1999.90;999.90;;;22.30;90.40;;;;;;5051626;28;20434;-66
2022/06/03 10:07:02;;;;;;;1999.90;999.90;;;22.30;90.20;;;;;;5051436;28;21049;-68
2022/06/03 10:17:51;;;;;;;1999.90;999.90;;;22.60;88.90;;;;;;5051367;28;20463;-67
2022/06/03 10:20:19;;;;;;;1999.90;999.90;;;22.40;89.00;;;;;;5051246;28;20838;-68
2022/06/03 10:22:48;;;;;;;1999.90;999.90;;;22.50;89.30;;;;;;5051383;28;20435;-68
2022/06/03 10:25:15;;;;;;;1999.90;999.90;;;22.60;89.10;;;;;;5051218;28;20458;-67
2022/06/03 10:27:43;;;;;;;1999.90;999.90;;;22.70;89.50;;;;;;5051233;28;20535;-67
2022/06/03 10:30:11;;;;;;;1999.90;999.90;;;22.80;90.40;;;;;;5051120;28;20435;-67
2022/06/03 10:32:37;;;;;;;1999.90;999.90;;;22.90;90.00;;;;;;5050994;28;20858;-67
2022/06/03 10:35:13;;;;;;;1999.90;999.90;;;23.00;90.00;;;;;;5050806;28;21123;-67
2022/06/03 10:37:49;;;;;;;1999.90;999.90;;;22.80;89.00;;;;;;5051294;28;20473;-68
2022/06/03 10:40:16;;;;;;;1999.90;999.90;;;23.00;89.70;;;;;;5051015;28;20438;-67
2022/06/03 10:42:47;;;;;;;1999.90;999.90;;;23.10;90.00;;;;;;5051334;28;20516;-67
2022/06/03 10:45:15;;;;;;;1999.90;999.90;;;23.30;89.20;;;;;;5054221;28;20561;-67
2022/06/03 10:47:44;;;;;;;1999.90;999.90;;;23.20;89.20;;;;;;5054535;28;20481;-68
2022/06/03 10:50:14;;;;;;;1999.90;999.90;;;22.90;89.80;;;;;;5054807;28;20473;-67
2022/06/03 11:01:17;;;;;;;1999.90;999.90;;;22.70;89.50;;;;;;5054636;28;20541;-66
2022/06/03 11:03:50;;;;;;;1999.90;999.90;;;23.00;89.50;;;;;;5054649;28;20501;-67
2022/06/03 11:06:18;;;;;;;1999.90;999.90;;;23.00;88.90;;;;;;5054183;28;20851;-67
2022/06/03 11:08:50;;;;;;;1999.90;999.90;;;23.00;88.90;;;;;;5053947;28;20486;-68
2022/06/03 11:11:38;;;;;;;1999.90;999.90;;;23.30;90.40;;;;;;5054597;28;20438;-68
2022/06/03 11:14:27;;;;;;;1999.90;999.90;;;23.60;88.90;;;;;;5054442;28;20480;-68
2022/06/03 11:17:01;;;;;;;1999.90;999.90;;;24.00;88.30;;;;;;5054504;28;20496;-65
2022/06/03 11:19:32;;;;;;;1999.90;999.90;;;24.10;85.70;;;;;;5054212;28;20476;-66
2022/06/03 11:22:14;;;;;;;1999.90;999.90;;;24.10;85.00;;;;;;5053940;28;20913;-67
2022/06/03 11:24:42;;;;;;;1999.90;999.90;;;23.80;86.30;;;;;;5054063;28;20446;-66
2022/06/03 11:27:12;;;;;;;1999.90;999.90;;;24.20;86.40;;;;;;5054126;28;20501;-66
2022/06/03 11:29:41;;;;;;;1999.90;999.90;;;24.30;84.80;;;;;;5053668;28;20926;-65
2022/06/03 11:32:11;;;;;;;1999.90;999.90;;;24.50;84.00;;;;;;5053864;28;20497;-66
2022/06/03 11:34:40;;;;;;;1999.90;999.90;;;24.30;84.40;;;;;;5053903;28;20496;-66
2022/06/03 11:37:14;;;;;;;1999.90;999.90;;;24.50;84.20;;;;;;5059538;22;20567;-70
2022/06/03 11:39:47;;;;;;;1999.90;999.90;;;24.20;82.70;;;;;;5033402;28;20447;-67
2022/06/03 11:42:21;;;;;;;1999.90;999.90;;;23.90;84.40;;;;;;5033604;28;20455;-67
2022/06/03 11:44:51;;;;;;;1999.90;999.90;;;23.80;84.00;;;;;;5033915;28;20807;-67
2022/06/03 11:47:22;;;;;;;1999.90;999.90;;;23.90;85.00;;;;;;5033253;28;20907;-70
2022/06/03 11:49:50;;;;;;;1999.90;999.90;;;24.10;86.10;;;;;;5033123;28;20926;-70
2022/06/03 11:52:17;;;;;;;1999.90;999.90;;;24.00;84.40;;;;;;5033673;28;20454;-68
2022/06/03 11:54:44;;;;;;;1999.90;999.90;;;24.00;83.90;;;;;;5033216;28;20447;-69
2022/06/03 11:57:12;;;;;;;1999.90;999.90;;;24.20;83.90;;;;;;5033523;28;20494;-71
2022/06/03 11:59:50;;;;;;;1999.90;999.90;;;24.20;82.50;;;;;;5033595;28;20443;-67
2022/06/03 12:02:19;;;;;;;1999.90;999.90;;;24.40;83.30;;;;;;5033610;28;20459;-67
2022/06/03 12:04:53;;;;;;;1999.90;999.90;;;24.50;81.70;;;;;;5033620;28;20456;-71
2022/06/03 12:07:36;;;;;;;1999.90;999.90;;;24.50;82.30;;;;;;5033018;28;20990;-70
2022/06/03 12:10:10;;;;;;;1999.90;999.90;;;24.60;82.20;;;;;;5033045;28;20922;-67
2022/06/03 12:15:38;;;;;;;1999.90;999.90;;;24.90;82.00;;;;;;5033010;28;20473;-69
2022/06/03 12:18:49;;;;;;;1999.90;999.90;;;24.80;81.50;;;;;;5033242;28;20467;-71
2022/06/03 12:21:53;;;;;;;1999.90;999.90;;;24.60;81.00;;;;;;5005353;28;20456;-71
2022/06/03 12:24:40;;;;;;;1999.90;999.90;;;24.40;81.80;;;;;;5033340;28;20431;-69
2022/06/03 12:27:16;;;;;;;1999.90;999.90;;;24.50;82.60;;;;;;5033158;28;20459;-70
2022/06/03 12:29:50;;;;;;;1999.90;999.90;;;24.70;83.60;;;;;;5032334;28;20501;-70
2022/06/03 12:32:24;;;;;;;1999.90;999.90;;;24.80;83.00;;;;;;5032830;28;20501;-69
2022/06/03 12:34:50;;;;;;;1999.90;999.90;;;24.90;82.00;;;;;;5033244;28;20515;-71
2022/06/03 12:37:27;;;;;;;1999.90;999.90;;;24.90;80.70;;;;;;5033046;28;20831;-71
2022/06/03 12:40:00;;;;;;;1999.90;999.90;;;24.80;81.00;;;;;;5032526;28;20974;-70
2022/06/03 12:42:40;;;;;;;1999.90;999.90;;;24.70;81.60;;;;;;5033131;28;20444;-67
2022/06/03 12:45:25;;;;;;;1999.90;999.90;;;24.70;82.60;;;;;;5032520;28;20865;-70
2022/06/03 12:47:52;;;;;;;1999.90;999.90;;;25.00;82.70;;;;;;5031404;28;20491;-70
2022/06/03 12:50:28;;;;;;;1999.90;999.90;;;24.90;81.00;;;;;;5032560;28;20526;-69
2022/06/03 12:53:02;;;;;;;1999.90;999.90;;;25.20;81.90;;;;;;5032545;28;20474;-67
2022/06/03 12:55:31;;;;;;;1999.90;999.90;;;25.20;82.30;;;;;;5032671;28;20808;-69
2022/06/03 12:58:01;;;;;;;1999.90;999.90;;;25.10;80.60;;;;;;5032660;28;20471;-69
2022/06/03 13:00:32;;;;;;;1999.90;999.90;;;25.30;82.00;;;;;;5032595;28;20443;-66
2022/06/03 13:03:01;;;;;;;1999.90;999.90;;;25.30;81.30;;;;;;5032976;28;20436;-67
2022/06/03 13:05:37;;;;;;;1999.90;999.90;;;25.40;80.50;;;;;;5031926;28;20828;-70
2022/06/03 13:08:08;;;;;;;1999.90;999.90;;;25.40;81.00;;;;;;5031598;28;20479;-70
2022/06/03 13:10:58;;;;;;;1999.90;999.90;;;25.40;80.00;;;;;;5032277;28;20494;-68
2022/06/03 13:13:47;;;;;;;1999.90;999.90;;;25.70;79.10;;;;;;5032251;28;20501;-67
2022/06/03 13:16:25;;;;;;;1999.90;999.90;;;25.30;79.20;;;;;;5032246;28;20552;-70
2022/06/03 13:18:54;;;;;;;1999.90;999.90;;;25.20;79.50;;;;;;5031534;28;20419;-69
2022/06/03 13:21:26;;;;;;;1999.90;999.90;;;25.20;79.40;;;;;;5031453;28;20440;-66
2022/06/03 13:24:00;;;;;;;1999.90;999.90;;;25.20;80.20;;;;;;5011763;28;20695;-66
2022/06/03 13:26:50;;;;;;;1999.90;999.90;;;25.40;78.90;;;;;;5011688;28;20499;-66
2022/06/03 13:30:12;;;;;;;1999.90;999.90;;;26.10;78.30;;;;;;5011012;28;20998;-68
2022/06/03 13:32:58;;;;;;;1999.90;999.90;;;25.70;78.50;;;;;;5011583;28;20502;-69
2022/06/03 13:35:27;;;;;;;1999.90;999.90;;;25.70;80.40;;;;;;5012278;28;20431;-70
2022/06/03 13:38:17;;;;;;;1999.90;999.90;;;25.70;78.30;;;;;;5012091;28;21203;-70
2022/06/03 13:43:26;;;;;;;1999.90;999.90;;;25.80;79.80;;;;;;5032093;28;20435;-68
2022/06/03 13:46:03;;;;;;;1999.90;999.90;;;25.60;78.60;;;;;;5032562;28;20442;-69
2022/06/03 13:48:38;;;;;;;1999.90;999.90;;;25.60;78.10;;;;;;5032258;28;20486;-69